Pineridge, South Carolina
Current Conditions -  °F | °C
As of 3:56 AM on Wednesday 26 Nov 2014 (Local Time) from KCAE Reporting Station
Light Rain Light Rain  
Wind Chill: 52°   Ceiling: 1200
Heat Index: 52°   Visibility: 5mi
Dew Point: 50°   Wind: 7mph
Humidity: 93%   Direction: NA
Pressure: 29.88"   Gusts: 16mph
Location:  33.9973°N, 81.0998°W
Report Text: KCAE 260856Z VRB06G14KT 5SM -RA BR SCT009 BKN012 OVC060 11/10 A2988 RMK AO2 SLP118 P0013 60030 T01110100 58007
Loading
Personal Weather Stations






























Interactive Weather Map New forecast layout! Learn more

10-Day Weather Forecast

Advertisements
Track Severe Weather on mobile